Palo, Iowa
Current Conditions -  °F | °C
As of 11:37 AM on Monday 22 Dec 2014 (Local Time) from KCID Reporting Station
Light Rain Light Rain  
Wind Chill: 29°   Ceiling: 900
Heat Index: 37°   Visibility: 2.5mi
Dew Point: 36°   Wind: 13mph
Humidity: 96%   Direction: 120°ESE
Pressure: 29.63"   Gusts: NA
Location:  42.07°N, 91.8°W
Report Text: KCID 221737Z 12011KT 2 1/2SM -RA BR BKN009 OVC033 03/02 A2963 RMK AO2 P0002 T00280022
Loading
Personal Weather Stations






























Interactive Weather Map New forecast layout! Learn more

10-Day Weather Forecast

Advertisements
Track Severe Weather on mobile